sensor_id;sensor_type;location;lat;lon;timestamp;P1;durP1;ratioP1;P2;durP2;ratioP2
70301;SDS011;57706;56.326;43.882;2023-02-28T00:00:09;11.23;;;5.40;;
70301;SDS011;57706;56.326;43.882;2023-02-28T00:02:42;7.25;;;3.38;;
70301;SDS011;57706;56.326;43.882;2023-02-28T00:05:09;9.15;;;3.90;;
70301;SDS011;57706;56.326;43.882;2023-02-28T00:07:36;8.93;;;4.15;;
70301;SDS011;57706;56.326;43.882;2023-02-28T00:10:03;10.05;;;4.53;;
70301;SDS011;57706;56.326;43.882;2023-02-28T00:12:31;9.88;;;4.25;;
70301;SDS011;57706;56.326;43.882;2023-02-28T00:14:58;8.43;;;3.92;;
70301;SDS011;57706;56.326;43.882;2023-02-28T00:19:49;8.25;;;3.90;;
70301;SDS011;57706;56.326;43.882;2023-02-28T00:22:20;10.45;;;3.90;;
70301;SDS011;57706;56.326;43.882;2023-02-28T00:24:46;11.13;;;4.13;;
70301;SDS011;57706;56.326;43.882;2023-02-28T00:27:13;8.25;;;3.85;;
70301;SDS011;57706;56.326;43.882;2023-02-28T00:29:39;8.48;;;3.58;;
70301;SDS011;57706;56.326;43.882;2023-02-28T00:32:05;8.98;;;3.60;;
70301;SDS011;57706;56.326;43.882;2023-02-28T00:34:32;8.82;;;3.95;;
70301;SDS011;57706;56.326;43.882;2023-02-28T00:37:06;8.40;;;3.60;;
70301;SDS011;57706;56.326;43.882;2023-02-28T00:39:35;9.77;;;4.05;;
70301;SDS011;57706;56.326;43.882;2023-02-28T00:42:02;8.98;;;3.90;;
70301;SDS011;57706;56.326;43.882;2023-02-28T00:44:28;8.80;;;3.42;;
70301;SDS011;57706;56.326;43.882;2023-02-28T00:46:55;6.57;;;3.15;;
70301;SDS011;57706;56.326;43.882;2023-02-28T00:49:24;7.63;;;3.55;;
70301;SDS011;57706;56.326;43.882;2023-02-28T00:51:50;6.38;;;3.25;;
70301;SDS011;57706;56.326;43.882;2023-02-28T00:54:18;6.35;;;3.42;;
70301;SDS011;57706;56.326;43.882;2023-02-28T00:56:46;9.65;;;3.42;;
70301;SDS011;57706;56.326;43.882;2023-02-28T00:59:13;7.80;;;3.75;;
70301;SDS011;57706;56.326;43.882;2023-02-28T01:01:40;9.93;;;4.10;;
70301;SDS011;57706;56.326;43.882;2023-02-28T01:04:07;11.32;;;3.83;;
70301;SDS011;57706;56.326;43.882;2023-02-28T01:06:35;9.40;;;3.70;;
70301;SDS011;57706;56.326;43.882;2023-02-28T01:09:02;8.63;;;4.18;;
70301;SDS011;57706;56.326;43.882;2023-02-28T01:11:29;8.82;;;3.90;;
70301;SDS011;57706;56.326;43.882;2023-02-28T01:13:55;9.38;;;4.13;;
70301;SDS011;57706;56.326;43.882;2023-02-28T01:16:22;8.85;;;4.63;;
70301;SDS011;57706;56.326;43.882;2023-02-28T01:18:48;11.23;;;5.43;;
70301;SDS011;57706;56.326;43.882;2023-02-28T01:23:41;11.82;;;6.10;;
70301;SDS011;57706;56.326;43.882;2023-02-28T01:26:19;12.93;;;6.55;;
70301;SDS011;57706;56.326;43.882;2023-02-28T01:28:47;12.13;;;5.30;;
70301;SDS011;57706;56.326;43.882;2023-02-28T01:31:14;11.93;;;5.25;;
70301;SDS011;57706;56.326;43.882;2023-02-28T01:33:43;11.85;;;5.25;;
70301;SDS011;57706;56.326;43.882;2023-02-28T01:38:54;10.07;;;4.63;;
70301;SDS011;57706;56.326;43.882;2023-02-28T01:41:25;14.63;;;5.53;;
70301;SDS011;57706;56.326;43.882;2023-02-28T01:44:05;13.30;;;4.75;;
70301;SDS011;57706;56.326;43.882;2023-02-28T01:49:05;13.27;;;4.60;;
70301;SDS011;57706;56.326;43.882;2023-02-28T01:51:44;12.35;;;4.00;;
70301;SDS011;57706;56.326;43.882;2023-02-28T01:54:17;5.40;;;3.38;;
70301;SDS011;57706;56.326;43.882;2023-02-28T01:56:49;10.93;;;4.25;;
70301;SDS011;57706;56.326;43.882;2023-02-28T01:59:25;8.13;;;3.90;;
70301;SDS011;57706;56.326;43.882;2023-02-28T02:01:58;6.43;;;3.60;;
70301;SDS011;57706;56.326;43.882;2023-02-28T02:04:26;10.38;;;4.10;;
70301;SDS011;57706;56.326;43.882;2023-02-28T02:06:58;9.90;;;4.68;;
70301;SDS011;57706;56.326;43.882;2023-02-28T02:09:24;9.45;;;4.13;;
70301;SDS011;57706;56.326;43.882;2023-02-28T02:11:51;9.18;;;4.32;;
70301;SDS011;57706;56.326;43.882;2023-02-28T02:14:26;11.10;;;4.10;;
70301;SDS011;57706;56.326;43.882;2023-02-28T02:17:12;12.20;;;4.93;;
70301;SDS011;57706;56.326;43.882;2023-02-28T02:37:01;7.15;;;3.22;;
70301;SDS011;57706;56.326;43.882;2023-02-28T02:42:19;9.15;;;3.72;;
70301;SDS011;57706;56.326;43.882;2023-02-28T02:44:55;5.88;;;3.30;;
70301;SDS011;57706;56.326;43.882;2023-02-28T02:47:29;8.05;;;3.97;;
70301;SDS011;57706;56.326;43.882;2023-02-28T02:49:58;6.60;;;3.58;;
70301;SDS011;57706;56.326;43.882;2023-02-28T02:52:37;9.30;;;4.07;;
70301;SDS011;57706;56.326;43.882;2023-02-28T02:55:07;9.38;;;4.03;;
70301;SDS011;57706;56.326;43.882;2023-02-28T02:57:40;8.70;;;3.90;;
70301;SDS011;57706;56.326;43.882;2023-02-28T03:00:13;9.35;;;3.90;;
70301;SDS011;57706;56.326;43.882;2023-02-28T03:02:43;10.15;;;3.85;;
70301;SDS011;57706;56.326;43.882;2023-02-28T03:05:19;4.68;;;2.53;;
70301;SDS011;57706;56.326;43.882;2023-02-28T03:07:49;7.70;;;2.85;;
70301;SDS011;57706;56.326;43.882;2023-02-28T03:15:49;4.32;;;2.47;;
70301;SDS011;57706;56.326;43.882;2023-02-28T03:18:20;3.67;;;1.80;;
70301;SDS011;57706;56.326;43.882;2023-02-28T03:23:21;5.75;;;2.33;;
70301;SDS011;57706;56.326;43.882;2023-02-28T03:26:06;6.50;;;2.85;;
70301;SDS011;57706;56.326;43.882;2023-02-28T03:28:41;5.53;;;2.70;;
70301;SDS011;57706;56.326;43.882;2023-02-28T03:31:21;7.80;;;2.25;;
70301;SDS011;57706;56.326;43.882;2023-02-28T03:36:44;7.32;;;2.60;;
70301;SDS011;57706;56.326;43.882;2023-02-28T03:39:17;6.72;;;2.17;;
70301;SDS011;57706;56.326;43.882;2023-02-28T03:41:49;4.25;;;2.00;;
70301;SDS011;57706;56.326;43.882;2023-02-28T03:44:29;4.22;;;1.80;;
70301;SDS011;57706;56.326;43.882;2023-02-28T03:47:02;5.13;;;1.80;;
70301;SDS011;57706;56.326;43.882;2023-02-28T03:49:35;3.85;;;2.05;;
70301;SDS011;57706;56.326;43.882;2023-02-28T03:52:35;3.15;;;1.70;;
70301;SDS011;57706;56.326;43.882;2023-02-28T03:55:07;4.60;;;2.20;;
70301;SDS011;57706;56.326;43.882;2023-02-28T03:57:56;3.13;;;2.03;;
70301;SDS011;57706;56.326;43.882;2023-02-28T04:00:31;2.65;;;1.95;;
70301;SDS011;57706;56.326;43.882;2023-02-28T04:03:04;3.88;;;2.17;;
70301;SDS011;57706;56.326;43.882;2023-02-28T04:05:31;7.43;;;2.28;;
70301;SDS011;57706;56.326;43.882;2023-02-28T04:08:04;3.53;;;2.05;;
70301;SDS011;57706;56.326;43.882;2023-02-28T04:10:32;4.05;;;2.45;;
70301;SDS011;57706;56.326;43.882;2023-02-28T04:12:58;3.22;;;1.90;;
70301;SDS011;57706;56.326;43.882;2023-02-28T04:17:50;5.63;;;2.40;;
70301;SDS011;57706;56.326;43.882;2023-02-28T04:22:41;4.15;;;2.20;;
70301;SDS011;57706;56.326;43.882;2023-02-28T04:27:33;4.38;;;2.05;;
70301;SDS011;57706;56.326;43.882;2023-02-28T04:32:25;2.55;;;1.65;;
70301;SDS011;57706;56.326;43.882;2023-02-28T04:37:16;4.28;;;2.15;;
70301;SDS011;57706;56.326;43.882;2023-02-28T04:39:42;3.78;;;1.95;;
70301;SDS011;57706;56.326;43.882;2023-02-28T04:42:09;3.65;;;2.00;;
70301;SDS011;57706;56.326;43.882;2023-02-28T04:44:36;5.38;;;2.47;;
70301;SDS011;57706;56.326;43.882;2023-02-28T04:49:27;3.38;;;2.03;;
70301;SDS011;57706;56.326;43.882;2023-02-28T04:54:19;2.67;;;1.83;;
70301;SDS011;57706;56.326;43.882;2023-02-28T04:59:10;2.17;;;1.48;;
70301;SDS011;57706;56.326;43.882;2023-02-28T05:04:02;2.13;;;1.55;;
70301;SDS011;57706;56.326;43.882;2023-02-28T05:06:30;4.75;;;2.03;;
70301;SDS011;57706;56.326;43.882;2023-02-28T05:08:57;4.30;;;2.30;;
70301;SDS011;57706;56.326;43.882;2023-02-28T05:14:03;3.60;;;1.48;;
70301;SDS011;57706;56.326;43.882;2023-02-28T05:16:31;4.05;;;2.22;;
70301;SDS011;57706;56.326;43.882;2023-02-28T05:18:57;5.20;;;2.85;;
70301;SDS011;57706;56.326;43.882;2023-02-28T05:23:52;4.18;;;2.22;;
70301;SDS011;57706;56.326;43.882;2023-02-28T05:26:18;3.65;;;1.95;;
70301;SDS011;57706;56.326;43.882;2023-02-28T05:28:46;4.85;;;2.03;;
70301;SDS011;57706;56.326;43.882;2023-02-28T05:31:12;3.60;;;1.90;;
70301;SDS011;57706;56.326;43.882;2023-02-28T05:36:03;3.72;;;2.00;;
70301;SDS011;57706;56.326;43.882;2023-02-28T05:38:29;4.28;;;2.42;;
70301;SDS011;57706;56.326;43.882;2023-02-28T05:40:55;4.28;;;2.30;;
70301;SDS011;57706;56.326;43.882;2023-02-28T05:43:21;7.38;;;2.72;;
70301;SDS011;57706;56.326;43.882;2023-02-28T05:45:47;6.63;;;2.65;;
70301;SDS011;57706;56.326;43.882;2023-02-28T05:48:13;3.55;;;2.05;;
70301;SDS011;57706;56.326;43.882;2023-02-28T05:50:39;5.53;;;2.45;;
70301;SDS011;57706;56.326;43.882;2023-02-28T05:53:05;4.22;;;2.42;;
70301;SDS011;57706;56.326;43.882;2023-02-28T05:55:31;3.08;;;2.20;;
70301;SDS011;57706;56.326;43.882;2023-02-28T05:57:56;4.32;;;2.42;;
70301;SDS011;57706;56.326;43.882;2023-02-28T06:00:22;3.13;;;1.92;;
70301;SDS011;57706;56.326;43.882;2023-02-28T06:02:48;4.38;;;2.53;;
70301;SDS011;57706;56.326;43.882;2023-02-28T06:05:15;5.35;;;2.78;;
70301;SDS011;57706;56.326;43.882;2023-02-28T06:07:43;4.38;;;1.80;;
70301;SDS011;57706;56.326;43.882;2023-02-28T06:10:10;3.83;;;2.28;;
70301;SDS011;57706;56.326;43.882;2023-02-28T06:12:36;6.00;;;2.70;;
70301;SDS011;57706;56.326;43.882;2023-02-28T06:15:03;3.53;;;2.35;;
70301;SDS011;57706;56.326;43.882;2023-02-28T06:17:29;4.75;;;2.45;;
70301;SDS011;57706;56.326;43.882;2023-02-28T06:19:55;4.30;;;2.22;;
70301;SDS011;57706;56.326;43.882;2023-02-28T06:22:21;4.47;;;2.10;;
70301;SDS011;57706;56.326;43.882;2023-02-28T06:24:47;3.78;;;2.40;;
70301;SDS011;57706;56.326;43.882;2023-02-28T06:27:13;3.72;;;2.30;;
70301;SDS011;57706;56.326;43.882;2023-02-28T06:29:39;5.68;;;2.58;;
70301;SDS011;57706;56.326;43.882;2023-02-28T06:32:05;5.72;;;2.67;;
70301;SDS011;57706;56.326;43.882;2023-02-28T06:34:31;5.68;;;2.60;;
70301;SDS011;57706;56.326;43.882;2023-02-28T06:37:00;6.57;;;3.10;;
70301;SDS011;57706;56.326;43.882;2023-02-28T06:39:30;4.25;;;2.60;;
70301;SDS011;57706;56.326;43.882;2023-02-28T06:41:57;3.85;;;2.38;;
70301;SDS011;57706;56.326;43.882;2023-02-28T06:44:23;4.75;;;2.67;;
70301;SDS011;57706;56.326;43.882;2023-02-28T06:46:49;5.10;;;2.97;;
70301;SDS011;57706;56.326;43.882;2023-02-28T06:49:15;3.58;;;2.70;;
70301;SDS011;57706;56.326;43.882;2023-02-28T06:51:43;4.43;;;2.60;;
70301;SDS011;57706;56.326;43.882;2023-02-28T06:54:13;5.05;;;2.65;;
70301;SDS011;57706;56.326;43.882;2023-02-28T06:56:39;4.82;;;2.92;;
70301;SDS011;57706;56.326;43.882;2023-02-28T06:59:04;3.75;;;2.58;;
70301;SDS011;57706;56.326;43.882;2023-02-28T07:01:31;4.07;;;2.85;;
70301;SDS011;57706;56.326;43.882;2023-02-28T07:03:58;4.20;;;2.50;;
70301;SDS011;57706;56.326;43.882;2023-02-28T07:06:25;5.85;;;3.40;;
70301;SDS011;57706;56.326;43.882;2023-02-28T07:08:51;7.82;;;3.28;;
70301;SDS011;57706;56.326;43.882;2023-02-28T07:11:19;5.47;;;3.25;;
70301;SDS011;57706;56.326;43.882;2023-02-28T07:13:48;5.43;;;3.00;;
70301;SDS011;57706;56.326;43.882;2023-02-28T07:16:14;6.10;;;3.50;;
70301;SDS011;57706;56.326;43.882;2023-02-28T07:18:40;4.80;;;2.97;;
70301;SDS011;57706;56.326;43.882;2023-02-28T07:21:07;6.90;;;3.60;;
70301;SDS011;57706;56.326;43.882;2023-02-28T07:23:34;5.88;;;3.00;;
70301;SDS011;57706;56.326;43.882;2023-02-28T07:26:00;4.88;;;3.00;;
70301;SDS011;57706;56.326;43.882;2023-02-28T07:28:27;5.95;;;2.80;;
70301;SDS011;57706;56.326;43.882;2023-02-28T07:30:53;4.03;;;2.53;;
70301;SDS011;57706;56.326;43.882;2023-02-28T07:33:18;4.18;;;2.47;;
70301;SDS011;57706;56.326;43.882;2023-02-28T07:35:44;7.47;;;3.70;;
70301;SDS011;57706;56.326;43.882;2023-02-28T07:38:10;4.07;;;2.65;;
70301;SDS011;57706;56.326;43.882;2023-02-28T07:40:36;4.10;;;2.47;;
70301;SDS011;57706;56.326;43.882;2023-02-28T07:43:02;5.45;;;3.33;;
70301;SDS011;57706;56.326;43.882;2023-02-28T07:45:29;4.82;;;3.03;;
70301;SDS011;57706;56.326;43.882;2023-02-28T07:47:56;6.57;;;3.03;;
70301;SDS011;57706;56.326;43.882;2023-02-28T07:50:23;6.78;;;3.08;;
70301;SDS011;57706;56.326;43.882;2023-02-28T07:52:49;6.20;;;2.97;;
70301;SDS011;57706;56.326;43.882;2023-02-28T07:55:14;5.95;;;2.70;;
70301;SDS011;57706;56.326;43.882;2023-02-28T07:57:42;7.07;;;3.45;;
70301;SDS011;57706;56.326;43.882;2023-02-28T08:00:08;7.18;;;3.17;;
70301;SDS011;57706;56.326;43.882;2023-02-28T08:02:39;5.68;;;3.40;;
70301;SDS011;57706;56.326;43.882;2023-02-28T08:05:06;6.32;;;2.67;;
70301;SDS011;57706;56.326;43.882;2023-02-28T08:07:32;8.55;;;3.28;;
70301;SDS011;57706;56.326;43.882;2023-02-28T08:09:58;7.07;;;3.42;;
70301;SDS011;57706;56.326;43.882;2023-02-28T08:12:24;4.70;;;2.63;;
70301;SDS011;57706;56.326;43.882;2023-02-28T08:14:50;9.63;;;3.00;;
70301;SDS011;57706;56.326;43.882;2023-02-28T08:17:16;8.13;;;3.13;;
70301;SDS011;57706;56.326;43.882;2023-02-28T08:19:44;7.60;;;3.60;;
70301;SDS011;57706;56.326;43.882;2023-02-28T08:22:11;8.10;;;3.90;;
70301;SDS011;57706;56.326;43.882;2023-02-28T08:24:37;6.20;;;3.25;;
70301;SDS011;57706;56.326;43.882;2023-02-28T08:27:03;6.28;;;3.22;;
70301;SDS011;57706;56.326;43.882;2023-02-28T08:29:28;7.95;;;3.97;;
70301;SDS011;57706;56.326;43.882;2023-02-28T08:31:55;7.60;;;3.75;;
70301;SDS011;57706;56.326;43.882;2023-02-28T08:34:22;6.60;;;3.35;;
70301;SDS011;57706;56.326;43.882;2023-02-28T08:36:48;7.60;;;3.80;;
70301;SDS011;57706;56.326;43.882;2023-02-28T08:39:14;8.80;;;4.45;;
70301;SDS011;57706;56.326;43.882;2023-02-28T08:41:40;7.38;;;3.08;;
70301;SDS011;57706;56.326;43.882;2023-02-28T08:44:07;8.07;;;3.63;;
70301;SDS011;57706;56.326;43.882;2023-02-28T08:46:33;6.80;;;3.70;;
70301;SDS011;57706;56.326;43.882;2023-02-28T08:48:59;10.25;;;4.15;;
70301;SDS011;57706;56.326;43.882;2023-02-28T08:51:27;8.20;;;4.03;;
70301;SDS011;57706;56.326;43.882;2023-02-28T08:53:58;5.93;;;3.03;;
70301;SDS011;57706;56.326;43.882;2023-02-28T08:56:25;9.20;;;3.90;;
70301;SDS011;57706;56.326;43.882;2023-02-28T08:58:53;5.70;;;3.50;;
70301;SDS011;57706;56.326;43.882;2023-02-28T09:01:25;7.18;;;3.70;;
70301;SDS011;57706;56.326;43.882;2023-02-28T09:03:52;9.00;;;4.07;;
70301;SDS011;57706;56.326;43.882;2023-02-28T09:06:20;5.10;;;3.17;;
70301;SDS011;57706;56.326;43.882;2023-02-28T09:08:47;6.40;;;3.70;;
70301;SDS011;57706;56.326;43.882;2023-02-28T09:11:13;7.90;;;3.95;;
70301;SDS011;57706;56.326;43.882;2023-02-28T09:13:39;7.32;;;3.45;;
70301;SDS011;57706;56.326;43.882;2023-02-28T09:16:06;6.57;;;3.38;;
70301;SDS011;57706;56.326;43.882;2023-02-28T09:18:35;8.80;;;3.45;;
70301;SDS011;57706;56.326;43.882;2023-02-28T09:21:06;6.93;;;3.60;;
70301;SDS011;57706;56.326;43.882;2023-02-28T09:23:34;6.57;;;3.80;;
70301;SDS011;57706;56.326;43.882;2023-02-28T09:26:00;6.70;;;3.38;;
70301;SDS011;57706;56.326;43.882;2023-02-28T09:28:26;8.15;;;3.75;;
70301;SDS011;57706;56.326;43.882;2023-02-28T09:30:53;6.97;;;3.53;;
70301;SDS011;57706;56.326;43.882;2023-02-28T09:33:20;5.78;;;3.28;;
70301;SDS011;57706;56.326;43.882;2023-02-28T09:35:47;7.25;;;3.33;;
70301;SDS011;57706;56.326;43.882;2023-02-28T09:38:13;8.77;;;4.03;;
70301;SDS011;57706;56.326;43.882;2023-02-28T09:40:45;7.07;;;3.78;;
70301;SDS011;57706;56.326;43.882;2023-02-28T09:43:12;8.13;;;3.67;;
70301;SDS011;57706;56.326;43.882;2023-02-28T09:45:41;6.07;;;3.00;;
70301;SDS011;57706;56.326;43.882;2023-02-28T09:48:12;7.68;;;3.67;;
70301;SDS011;57706;56.326;43.882;2023-02-28T09:50:51;7.53;;;3.83;;
70301;SDS011;57706;56.326;43.882;2023-02-28T09:53:28;8.45;;;3.83;;
70301;SDS011;57706;56.326;43.882;2023-02-28T09:56:10;6.82;;;3.85;;
70301;SDS011;57706;56.326;43.882;2023-02-28T09:58:48;9.75;;;3.92;;
70301;SDS011;57706;56.326;43.882;2023-02-28T10:03:58;7.85;;;4.03;;
70301;SDS011;57706;56.326;43.882;2023-02-28T10:06:36;7.78;;;3.95;;
70301;SDS011;57706;56.326;43.882;2023-02-28T10:09:29;11.50;;;3.90;;
70301;SDS011;57706;56.326;43.882;2023-02-28T10:12:00;6.65;;;3.65;;
70301;SDS011;57706;56.326;43.882;2023-02-28T10:14:30;9.88;;;4.60;;
70301;SDS011;57706;56.326;43.882;2023-02-28T10:17:10;7.32;;;3.97;;
70301;SDS011;57706;56.326;43.882;2023-02-28T10:22:24;8.85;;;4.35;;
70301;SDS011;57706;56.326;43.882;2023-02-28T10:25:15;8.73;;;4.32;;
70301;SDS011;57706;56.326;43.882;2023-02-28T10:27:44;8.45;;;4.10;;
70301;SDS011;57706;56.326;43.882;2023-02-28T10:30:10;9.25;;;4.00;;
70301;SDS011;57706;56.326;43.882;2023-02-28T10:32:37;6.38;;;3.83;;
70301;SDS011;57706;56.326;43.882;2023-02-28T10:37:41;9.75;;;4.20;;
70301;SDS011;57706;56.326;43.882;2023-02-28T10:43:45;10.07;;;3.85;;
70301;SDS011;57706;56.326;43.882;2023-02-28T10:45:52;6.63;;;3.60;;
70301;SDS011;57706;56.326;43.882;2023-02-28T10:48:30;7.32;;;3.63;;
70301;SDS011;57706;56.326;43.882;2023-02-28T10:50:59;6.53;;;3.70;;
70301;SDS011;57706;56.326;43.882;2023-02-28T10:53:36;9.43;;;4.15;;
70301;SDS011;57706;56.326;43.882;2023-02-28T11:01:40;10.63;;;4.47;;
70301;SDS011;57706;56.326;43.882;2023-02-28T11:04:18;11.20;;;4.88;;
70301;SDS011;57706;56.326;43.882;2023-02-28T11:07:06;9.05;;;4.32;;
70301;SDS011;57706;56.326;43.882;2023-02-28T11:09:44;9.25;;;3.88;;
70301;SDS011;57706;56.326;43.882;2023-02-28T11:15:07;9.55;;;3.67;;
70301;SDS011;57706;56.326;43.882;2023-02-28T11:18:01;8.73;;;3.90;;
70301;SDS011;57706;56.326;43.882;2023-02-28T11:20:50;6.80;;;3.92;;
70301;SDS011;57706;56.326;43.882;2023-02-28T11:23:19;4.32;;;2.47;;
70301;SDS011;57706;56.326;43.882;2023-02-28T11:25:47;6.65;;;3.83;;
70301;SDS011;57706;56.326;43.882;2023-02-28T11:28:24;7.25;;;4.13;;
70301;SDS011;57706;56.326;43.882;2023-02-28T11:31:02;8.68;;;3.83;;
70301;SDS011;57706;56.326;43.882;2023-02-28T11:33:31;7.15;;;4.13;;
70301;SDS011;57706;56.326;43.882;2023-02-28T11:36:14;7.13;;;3.28;;
70301;SDS011;57706;56.326;43.882;2023-02-28T11:38:44;7.15;;;3.88;;
70301;SDS011;57706;56.326;43.882;2023-02-28T11:44:32;6.88;;;3.83;;
70301;SDS011;57706;56.326;43.882;2023-02-28T11:57:29;8.48;;;3.45;;
70301;SDS011;57706;56.326;43.882;2023-02-28T12:03:14;6.88;;;3.15;;
70301;SDS011;57706;56.326;43.882;2023-02-28T12:05:48;10.15;;;4.60;;
70301;SDS011;57706;56.326;43.882;2023-02-28T12:16:49;8.15;;;3.72;;
70301;SDS011;57706;56.326;43.882;2023-02-28T12:19:39;10.32;;;3.88;;
70301;SDS011;57706;56.326;43.882;2023-02-28T12:27:46;10.32;;;3.80;;
70301;SDS011;57706;56.326;43.882;2023-02-28T12:30:22;11.23;;;4.50;;
70301;SDS011;57706;56.326;43.882;2023-02-28T12:32:53;7.93;;;3.95;;
70301;SDS011;57706;56.326;43.882;2023-02-28T12:35:28;7.55;;;3.80;;
70301;SDS011;57706;56.326;43.882;2023-02-28T12:40:56;7.97;;;3.88;;
70301;SDS011;57706;56.326;43.882;2023-02-28T12:43:29;10.07;;;4.30;;
70301;SDS011;57706;56.326;43.882;2023-02-28T12:46:17;5.35;;;2.97;;
70301;SDS011;57706;56.326;43.882;2023-02-28T12:48:59;7.53;;;3.55;;
70301;SDS011;57706;56.326;43.882;2023-02-28T12:51:30;8.73;;;4.05;;
70301;SDS011;57706;56.326;43.882;2023-02-28T12:59:55;6.05;;;3.35;;
70301;SDS011;57706;56.326;43.882;2023-02-28T13:05:26;5.50;;;2.70;;
70301;SDS011;57706;56.326;43.882;2023-02-28T13:08:04;6.60;;;3.88;;
70301;SDS011;57706;56.326;43.882;2023-02-28T13:10:40;8.00;;;3.45;;
70301;SDS011;57706;56.326;43.882;2023-02-28T13:13:13;5.80;;;3.25;;
70301;SDS011;57706;56.326;43.882;2023-02-28T13:15:56;7.00;;;3.55;;
70301;SDS011;57706;56.326;43.882;2023-02-28T13:18:37;6.43;;;2.95;;
70301;SDS011;57706;56.326;43.882;2023-02-28T13:21:06;6.28;;;3.55;;
70301;SDS011;57706;56.326;43.882;2023-02-28T13:24:07;6.78;;;3.72;;
70301;SDS011;57706;56.326;43.882;2023-02-28T13:32:18;8.80;;;4.30;;
70301;SDS011;57706;56.326;43.882;2023-02-28T13:34:37;7.40;;;4.25;;
70301;SDS011;57706;56.326;43.882;2023-02-28T13:42:35;8.00;;;4.15;;
70301;SDS011;57706;56.326;43.882;2023-02-28T13:47:44;6.25;;;3.22;;
70301;SDS011;57706;56.326;43.882;2023-02-28T13:52:48;8.88;;;3.38;;
70301;SDS011;57706;56.326;43.882;2023-02-28T14:06:40;9.07;;;4.30;;
70301;SDS011;57706;56.326;43.882;2023-02-28T14:11:50;9.98;;;4.70;;
70301;SDS011;57706;56.326;43.882;2023-02-28T14:17:22;7.32;;;3.55;;
70301;SDS011;57706;56.326;43.882;2023-02-28T14:19:47;11.77;;;4.57;;
70301;SDS011;57706;56.326;43.882;2023-02-28T14:28:03;6.68;;;3.72;;
70301;SDS011;57706;56.326;43.882;2023-02-28T14:33:42;6.47;;;3.47;;
70301;SDS011;57706;56.326;43.882;2023-02-28T14:36:45;8.73;;;3.92;;
70301;SDS011;57706;56.326;43.882;2023-02-28T14:39:14;9.55;;;4.22;;
70301;SDS011;57706;56.326;43.882;2023-02-28T14:41:43;9.40;;;4.53;;
70301;SDS011;57706;56.326;43.882;2023-02-28T14:46:43;10.23;;;4.13;;
70301;SDS011;57706;56.326;43.882;2023-02-28T14:49:17;7.13;;;4.20;;
70301;SDS011;57706;56.326;43.882;2023-02-28T14:54:38;13.40;;;5.22;;
70301;SDS011;57706;56.326;43.882;2023-02-28T14:57:05;9.57;;;4.75;;
70301;SDS011;57706;56.326;43.882;2023-02-28T14:59:32;9.80;;;4.53;;
70301;SDS011;57706;56.326;43.882;2023-02-28T15:05:01;9.63;;;4.78;;
70301;SDS011;57706;56.326;43.882;2023-02-28T15:07:42;9.70;;;5.30;;
70301;SDS011;57706;56.326;43.882;2023-02-28T15:10:23;10.32;;;4.82;;
70301;SDS011;57706;56.326;43.882;2023-02-28T15:15:19;10.32;;;4.95;;
70301;SDS011;57706;56.326;43.882;2023-02-28T15:17:53;11.98;;;5.35;;
70301;SDS011;57706;56.326;43.882;2023-02-28T15:20:23;8.48;;;4.63;;
70301;SDS011;57706;56.326;43.882;2023-02-28T15:22:50;10.32;;;5.22;;
70301;SDS011;57706;56.326;43.882;2023-02-28T15:25:20;11.02;;;4.75;;
70301;SDS011;57706;56.326;43.882;2023-02-28T15:27:49;9.73;;;4.55;;
70301;SDS011;57706;56.326;43.882;2023-02-28T15:33:01;10.48;;;4.35;;
70301;SDS011;57706;56.326;43.882;2023-02-28T15:35:31;8.77;;;4.75;;
70301;SDS011;57706;56.326;43.882;2023-02-28T15:38:02;10.35;;;5.03;;
70301;SDS011;57706;56.326;43.882;2023-02-28T15:40:43;6.80;;;3.72;;
70301;SDS011;57706;56.326;43.882;2023-02-28T15:43:26;10.98;;;5.32;;
70301;SDS011;57706;56.326;43.882;2023-02-28T15:48:28;9.82;;;4.22;;
70301;SDS011;57706;56.326;43.882;2023-02-28T15:54:04;7.68;;;3.97;;
70301;SDS011;57706;56.326;43.882;2023-02-28T15:56:33;15.05;;;5.07;;
70301;SDS011;57706;56.326;43.882;2023-02-28T15:59:07;12.23;;;5.63;;
70301;SDS011;57706;56.326;43.882;2023-02-28T16:01:43;8.63;;;4.03;;
70301;SDS011;57706;56.326;43.882;2023-02-28T16:04:14;9.75;;;4.55;;
70301;SDS011;57706;56.326;43.882;2023-02-28T16:09:11;11.18;;;4.43;;
70301;SDS011;57706;56.326;43.882;2023-02-28T16:11:39;10.05;;;4.20;;
70301;SDS011;57706;56.326;43.882;2023-02-28T16:14:13;11.18;;;5.25;;
70301;SDS011;57706;56.326;43.882;2023-02-28T16:16:46;8.48;;;4.25;;
70301;SDS011;57706;56.326;43.882;2023-02-28T16:19:14;10.30;;;4.38;;
70301;SDS011;57706;56.326;43.882;2023-02-28T16:21:41;8.40;;;4.22;;
70301;SDS011;57706;56.326;43.882;2023-02-28T16:24:07;11.65;;;4.50;;
70301;SDS011;57706;56.326;43.882;2023-02-28T16:26:33;8.20;;;3.83;;
70301;SDS011;57706;56.326;43.882;2023-02-28T16:29:02;8.90;;;4.65;;
70301;SDS011;57706;56.326;43.882;2023-02-28T16:31:29;8.85;;;4.43;;
70301;SDS011;57706;56.326;43.882;2023-02-28T16:34:00;13.00;;;4.05;;
70301;SDS011;57706;56.326;43.882;2023-02-28T16:36:26;8.75;;;4.32;;
70301;SDS011;57706;56.326;43.882;2023-02-28T16:38:53;9.02;;;4.57;;
70301;SDS011;57706;56.326;43.882;2023-02-28T16:41:20;8.73;;;4.00;;
70301;SDS011;57706;56.326;43.882;2023-02-28T16:43:50;7.47;;;3.72;;
70301;SDS011;57706;56.326;43.882;2023-02-28T16:46:24;8.32;;;3.88;;
70301;SDS011;57706;56.326;43.882;2023-02-28T16:48:58;5.78;;;2.88;;
70301;SDS011;57706;56.326;43.882;2023-02-28T16:51:27;7.93;;;4.43;;
70301;SDS011;57706;56.326;43.882;2023-02-28T16:53:53;8.32;;;4.43;;
70301;SDS011;57706;56.326;43.882;2023-02-28T16:56:21;5.05;;;3.00;;
70301;SDS011;57706;56.326;43.882;2023-02-28T16:58:51;6.15;;;2.97;;
70301;SDS011;57706;56.326;43.882;2023-02-28T17:01:21;7.97;;;3.67;;
70301;SDS011;57706;56.326;43.882;2023-02-28T17:03:49;10.85;;;4.10;;
70301;SDS011;57706;56.326;43.882;2023-02-28T17:06:19;8.57;;;3.88;;
70301;SDS011;57706;56.326;43.882;2023-02-28T17:08:53;6.57;;;3.28;;
70301;SDS011;57706;56.326;43.882;2023-02-28T17:11:20;7.18;;;3.65;;
70301;SDS011;57706;56.326;43.882;2023-02-28T17:13:47;7.20;;;4.03;;
70301;SDS011;57706;56.326;43.882;2023-02-28T17:16:25;6.50;;;2.92;;
70301;SDS011;57706;56.326;43.882;2023-02-28T17:18:59;6.57;;;3.00;;
70301;SDS011;57706;56.326;43.882;2023-02-28T17:21:27;7.70;;;4.35;;
70301;SDS011;57706;56.326;43.882;2023-02-28T17:23:56;5.97;;;3.33;;
70301;SDS011;57706;56.326;43.882;2023-02-28T17:26:22;7.28;;;3.33;;
70301;SDS011;57706;56.326;43.882;2023-02-28T17:28:57;6.63;;;3.45;;
70301;SDS011;57706;56.326;43.882;2023-02-28T17:31:24;6.38;;;3.53;;
70301;SDS011;57706;56.326;43.882;2023-02-28T17:33:52;7.13;;;3.22;;
70301;SDS011;57706;56.326;43.882;2023-02-28T17:36:23;7.55;;;3.60;;
70301;SDS011;57706;56.326;43.882;2023-02-28T17:38:53;5.75;;;2.78;;
70301;SDS011;57706;56.326;43.882;2023-02-28T17:41:23;7.40;;;2.97;;
70301;SDS011;57706;56.326;43.882;2023-02-28T17:43:51;6.93;;;3.20;;
70301;SDS011;57706;56.326;43.882;2023-02-28T17:46:19;6.38;;;3.10;;
70301;SDS011;57706;56.326;43.882;2023-02-28T17:48:48;8.10;;;2.97;;
70301;SDS011;57706;56.326;43.882;2023-02-28T17:51:20;6.38;;;3.60;;
70301;SDS011;57706;56.326;43.882;2023-02-28T17:53:48;7.53;;;3.30;;
70301;SDS011;57706;56.326;43.882;2023-02-28T17:56:22;6.30;;;2.80;;
70301;SDS011;57706;56.326;43.882;2023-02-28T17:58:50;15.13;;;6.75;;
70301;SDS011;57706;56.326;43.882;2023-02-28T18:01:18;5.68;;;2.80;;
70301;SDS011;57706;56.326;43.882;2023-02-28T18:03:45;5.13;;;3.05;;
70301;SDS011;57706;56.326;43.882;2023-02-28T18:06:22;7.03;;;3.10;;